createdAt,value
2019-02-02T00:00:53.669Z,978.3
2019-02-02T00:01:55.053Z,978.3
2019-02-02T00:02:56.440Z,978.3
2019-02-02T00:03:57.823Z,978.2
2019-02-02T00:04:59.322Z,978.3
2019-02-02T00:06:00.561Z,978.2
2019-02-02T00:07:01.936Z,978.2
2019-02-02T00:08:03.318Z,978.2
2019-02-02T00:09:04.701Z,978.2
2019-02-02T00:10:06.083Z,978.3
2019-02-02T00:11:07.470Z,978.3
2019-02-02T00:12:08.856Z,978.3
2019-02-02T00:13:10.245Z,978.3
2019-02-02T00:14:11.678Z,978.4
2019-02-02T00:15:13.021Z,978.3
2019-02-02T00:16:14.411Z,978.3
2019-02-02T00:17:15.795Z,978.3
2019-02-02T00:18:17.175Z,978.3
2019-02-02T00:19:18.565Z,978.3
2019-02-02T00:20:19.955Z,978.3
2019-02-02T00:21:21.342Z,978.3
2019-02-02T00:22:22.725Z,978.3
2019-02-02T00:23:24.108Z,978.3
2019-02-02T00:24:25.539Z,978.3
2019-02-02T00:25:26.885Z,978.2
2019-02-02T00:26:28.267Z,978.2
2019-02-02T00:27:40.796Z,978.3
2019-02-02T00:28:31.002Z,978.3
2019-02-02T00:29:32.387Z,978.3
2019-02-02T00:30:33.775Z,978.3
2019-02-02T00:31:35.160Z,978.3
2019-02-02T00:32:36.554Z,978.3
2019-02-02T00:33:37.928Z,978.3
2019-02-02T00:34:39.316Z,978.4
2019-02-02T00:35:40.708Z,978.3
2019-02-02T00:36:42.094Z,978.4
2019-02-02T00:37:43.488Z,978.4
2019-02-02T00:38:44.891Z,978.3
2019-02-02T00:39:46.274Z,978.3
2019-02-02T00:40:47.660Z,978.4
2019-02-02T00:41:49.041Z,978.4
2019-02-02T00:42:50.427Z,978.4
2019-02-02T00:43:51.822Z,978.4
2019-02-02T00:44:53.186Z,978.4
2019-02-02T00:45:54.573Z,978.4
2019-02-02T00:46:55.956Z,978.4
2019-02-02T00:47:57.343Z,978.5
2019-02-02T00:48:58.724Z,978.5
2019-02-02T00:50:00.322Z,978.6
2019-02-02T00:51:01.462Z,978.6
2019-02-02T00:52:02.885Z,978.5
2019-02-02T00:53:04.297Z,978.5
2019-02-02T00:54:05.704Z,978.6
2019-02-02T00:55:07.060Z,978.6
2019-02-02T00:56:08.472Z,978.6
2019-02-02T00:57:09.844Z,978.5
2019-02-02T00:58:11.236Z,978.6
2019-02-02T00:59:12.617Z,978.5
2019-02-02T01:00:14.000Z,978.5
2019-02-02T01:01:15.389Z,978.5
2019-02-02T01:02:16.781Z,978.5
2019-02-02T01:03:18.166Z,978.5
2019-02-02T01:04:19.571Z,978.5
2019-02-02T01:05:20.958Z,978.5
2019-02-02T01:06:22.342Z,978.5
2019-02-02T01:07:23.728Z,978.5
2019-02-02T01:08:25.117Z,978.5
2019-02-02T01:09:26.519Z,978.5
2019-02-02T01:10:27.917Z,978.5
2019-02-02T01:11:29.330Z,978.5
2019-02-02T01:12:30.687Z,978.5
2019-02-02T01:13:32.070Z,978.5
2019-02-02T01:14:33.458Z,978.5
2019-02-02T01:15:34.842Z,978.6
2019-02-02T01:16:36.231Z,978.6
2019-02-02T01:17:37.613Z,978.6
2019-02-02T01:18:38.993Z,978.7
2019-02-02T01:19:40.391Z,978.6
2019-02-02T01:20:41.773Z,978.6
2019-02-02T01:21:43.157Z,978.6
2019-02-02T01:22:44.550Z,978.6
2019-02-02T01:23:45.936Z,978.6
2019-02-02T01:24:47.326Z,978.6
2019-02-02T01:25:48.717Z,978.6
2019-02-02T01:26:50.095Z,978.6
2019-02-02T01:27:51.478Z,978.6
2019-02-02T01:28:52.914Z,978.7
2019-02-02T01:29:54.256Z,978.7
2019-02-02T01:30:55.640Z,978.7
2019-02-02T01:31:57.030Z,978.7
2019-02-02T01:32:58.421Z,978.7
2019-02-02T01:33:59.813Z,978.7
2019-02-02T01:35:01.201Z,978.7
2019-02-02T01:36:02.630Z,978.8
2019-02-02T01:37:04.012Z,978.7
2019-02-02T01:38:05.401Z,978.8
2019-02-02T01:39:06.781Z,978.8
2019-02-02T01:40:08.179Z,978.9
2019-02-02T01:41:09.566Z,978.9
2019-02-02T01:42:10.957Z,978.9
2019-02-02T01:43:12.457Z,978.9
2019-02-02T01:44:13.870Z,978.9
2019-02-02T01:45:15.257Z,978.8
2019-02-02T01:46:16.642Z,978.9
2019-02-02T01:47:18.022Z,978.9
2019-02-02T01:48:19.411Z,978.8
2019-02-02T01:49:20.790Z,978.9
2019-02-02T01:50:22.176Z,978.9
2019-02-02T01:51:23.559Z,978.9
2019-02-02T01:52:24.951Z,978.9
2019-02-02T01:53:26.340Z,978.9
2019-02-02T01:54:27.718Z,979.0
2019-02-02T01:55:29.106Z,979.0
2019-02-02T01:56:30.492Z,979.0
2019-02-02T01:57:31.877Z,979.0
2019-02-02T01:58:33.265Z,979.0
2019-02-02T01:59:34.648Z,979.0
2019-02-02T02:00:36.036Z,979.0
2019-02-02T02:01:37.420Z,979.0
2019-02-02T02:02:38.805Z,979.0
2019-02-02T02:03:40.192Z,979.0
2019-02-02T02:04:41.575Z,979.1
2019-02-02T02:05:42.961Z,979.0
2019-02-02T02:06:44.347Z,979.1
2019-02-02T02:07:45.735Z,979.0
2019-02-02T02:08:47.117Z,979.0
2019-02-02T02:09:48.501Z,979.0
2019-02-02T02:10:49.889Z,979.0
2019-02-02T02:11:51.273Z,979.0
2019-02-02T02:12:52.689Z,979.0
2019-02-02T02:13:54.052Z,979.0
2019-02-02T02:14:55.442Z,978.9
2019-02-02T02:15:56.823Z,979.0
2019-02-02T02:16:58.219Z,979.0
2019-02-02T02:17:59.603Z,979.0
2019-02-02T02:19:00.986Z,979.1
2019-02-02T02:20:02.373Z,979.0
2019-02-02T02:21:03.760Z,979.0
2019-02-02T02:22:05.144Z,979.1
2019-02-02T02:23:06.525Z,979.0
2019-02-02T02:24:07.910Z,979.1
2019-02-02T02:25:09.293Z,979.0
2019-02-02T02:26:10.676Z,979.1
2019-02-02T02:27:12.061Z,979.1
2019-02-02T02:28:13.444Z,979.0
2019-02-02T02:29:14.832Z,979.0
2019-02-02T02:30:16.218Z,979.0
2019-02-02T02:31:17.603Z,979.0
2019-02-02T02:32:18.986Z,979.0
2019-02-02T02:33:20.376Z,979.0
2019-02-02T02:34:21.805Z,979.0
2019-02-02T02:35:23.220Z,979.0
2019-02-02T02:36:24.618Z,979.1
2019-02-02T02:37:25.998Z,979.1
2019-02-02T02:38:27.378Z,979.0
2019-02-02T02:39:28.760Z,979.1
2019-02-02T02:40:30.147Z,979.1
2019-02-02T02:41:31.539Z,979.0
2019-02-02T02:42:32.921Z,979.0
2019-02-02T02:43:34.301Z,979.0
2019-02-02T02:44:35.685Z,979.0
2019-02-02T02:45:37.071Z,979.0
2019-02-02T02:46:38.457Z,979.0
2019-02-02T02:47:39.866Z,979.1
2019-02-02T02:48:41.189Z,979.1
2019-02-02T02:49:42.578Z,979.1
2019-02-02T02:50:43.968Z,979.1
2019-02-02T02:51:45.355Z,979.1
2019-02-02T02:52:46.739Z,979.1
2019-02-02T02:53:48.118Z,979.1
2019-02-02T02:54:49.504Z,979.2
2019-02-02T02:55:50.890Z,979.2
2019-02-02T02:56:52.277Z,979.2
2019-02-02T02:57:53.662Z,979.1
2019-02-02T02:58:55.046Z,979.2
2019-02-02T02:59:56.428Z,979.2
2019-02-02T03:00:57.814Z,979.1
2019-02-02T03:01:59.208Z,979.1
2019-02-02T03:03:00.716Z,979.1
2019-02-02T03:04:01.953Z,979.1
2019-02-02T03:05:03.346Z,979.1
2019-02-02T03:06:04.682Z,979.1
2019-02-02T03:07:06.035Z,979.1
2019-02-02T03:08:07.421Z,979.1
2019-02-02T03:09:08.817Z,979.1
2019-02-02T03:10:10.201Z,979.1
2019-02-02T03:11:11.591Z,979.1
2019-02-02T03:12:12.974Z,979.1
2019-02-02T03:13:14.360Z,979.1
2019-02-02T03:14:15.743Z,979.1
2019-02-02T03:15:17.144Z,979.2
2019-02-02T03:16:18.518Z,979.1
2019-02-02T03:17:19.943Z,979.2
2019-02-02T03:18:21.334Z,979.2
2019-02-02T03:19:22.727Z,979.2
2019-02-02T03:20:24.114Z,979.2
2019-02-02T03:21:25.492Z,979.2
2019-02-02T03:22:26.880Z,979.2
2019-02-02T03:23:28.265Z,979.2
2019-02-02T03:24:29.648Z,979.2
2019-02-02T03:25:31.103Z,979.2
2019-02-02T03:26:32.430Z,979.3
2019-02-02T03:27:33.832Z,979.3
2019-02-02T03:28:35.198Z,979.3
2019-02-02T03:29:36.579Z,979.3
2019-02-02T03:30:37.986Z,979.3
2019-02-02T03:31:39.353Z,979.3
2019-02-02T03:32:40.768Z,979.3
2019-02-02T03:33:42.145Z,979.3
2019-02-02T03:34:43.530Z,979.2
2019-02-02T03:35:44.928Z,979.2
2019-02-02T03:36:46.312Z,979.3
2019-02-02T03:37:47.699Z,979.2
2019-02-02T03:38:49.082Z,979.2
2019-02-02T03:39:50.466Z,979.2
2019-02-02T03:40:51.850Z,979.2
2019-02-02T03:41:53.234Z,979.2
2019-02-02T03:42:54.612Z,979.2
2019-02-02T03:43:55.994Z,979.2
2019-02-02T03:44:57.381Z,979.3
2019-02-02T03:45:58.766Z,979.3
2019-02-02T03:47:00.151Z,979.3
2019-02-02T03:48:01.567Z,979.2
2019-02-02T03:49:02.920Z,979.2
2019-02-02T03:50:04.304Z,979.2
2019-02-02T03:51:05.690Z,979.2
2019-02-02T03:52:07.086Z,979.2
2019-02-02T03:53:08.471Z,979.2
2019-02-02T03:54:09.855Z,979.2
2019-02-02T03:55:11.239Z,979.2
2019-02-02T03:56:12.751Z,979.2
2019-02-02T03:57:13.966Z,979.2
2019-02-02T03:58:15.345Z,979.2
2019-02-02T03:59:16.731Z,979.2
2019-02-02T04:00:18.136Z,979.2
2019-02-02T04:01:19.522Z,979.3
2019-02-02T04:02:20.908Z,979.2
2019-02-02T04:03:22.288Z,979.3
2019-02-02T04:04:23.692Z,979.3
2019-02-02T04:05:25.077Z,979.3
2019-02-02T04:06:26.462Z,979.3
2019-02-02T04:07:27.853Z,979.3
2019-02-02T04:08:29.257Z,979.3
2019-02-02T04:09:30.807Z,979.3
2019-02-02T04:10:31.996Z,979.3
2019-02-02T04:11:33.379Z,979.3
2019-02-02T04:12:34.764Z,979.2
2019-02-02T04:13:36.152Z,979.2
2019-02-02T04:14:37.539Z,979.3
2019-02-02T04:15:38.919Z,979.3
2019-02-02T04:16:40.313Z,979.3
2019-02-02T04:17:41.721Z,979.3
2019-02-02T04:18:43.150Z,979.3
2019-02-02T04:19:44.538Z,979.3
2019-02-02T04:20:45.927Z,979.3
2019-02-02T04:21:47.320Z,979.3
2019-02-02T04:22:48.702Z,979.3
2019-02-02T04:23:50.086Z,979.4
2019-02-02T04:24:51.470Z,979.4
2019-02-02T04:25:52.859Z,979.4
2019-02-02T04:26:54.243Z,979.4
2019-02-02T04:27:55.634Z,979.4
2019-02-02T04:28:57.012Z,979.4
2019-02-02T04:29:58.394Z,979.4
2019-02-02T04:30:59.782Z,979.4
2019-02-02T04:32:01.223Z,979.4
2019-02-02T04:33:02.606Z,979.4
2019-02-02T04:34:03.993Z,979.3
2019-02-02T04:35:05.386Z,979.4
2019-02-02T04:36:06.769Z,979.3
2019-02-02T04:37:08.156Z,979.4
2019-02-02T04:38:09.541Z,979.4
2019-02-02T04:39:10.924Z,979.4
2019-02-02T04:40:12.308Z,979.4
2019-02-02T04:41:13.688Z,979.4
2019-02-02T04:42:15.069Z,979.4
2019-02-02T04:43:16.450Z,979.3
2019-02-02T04:44:17.835Z,979.3
2019-02-02T04:45:19.219Z,979.3
2019-02-02T04:46:20.608Z,979.3
2019-02-02T04:47:21.995Z,979.3
2019-02-02T04:48:23.396Z,979.3
2019-02-02T04:49:24.780Z,979.3
2019-02-02T04:50:26.163Z,979.3
2019-02-02T04:51:27.547Z,979.3
2019-02-02T04:52:28.934Z,979.3
2019-02-02T04:53:30.314Z,979.3
2019-02-02T04:54:31.805Z,979.3
2019-02-02T04:55:33.183Z,979.3
2019-02-02T04:56:34.578Z,979.4
2019-02-02T04:57:35.955Z,979.4
2019-02-02T04:58:37.337Z,979.3
2019-02-02T04:59:38.720Z,979.4
2019-02-02T05:00:40.185Z,979.4
2019-02-02T05:01:41.562Z,979.4
2019-02-02T05:02:42.951Z,979.4
2019-02-02T05:03:44.331Z,979.4
2019-02-02T05:04:45.717Z,979.4
2019-02-02T05:05:47.099Z,979.4
2019-02-02T05:06:48.483Z,979.4
2019-02-02T05:07:49.864Z,979.4
2019-02-02T05:08:51.283Z,979.4
2019-02-02T05:09:52.741Z,979.4
2019-02-02T05:10:54.254Z,979.4
2019-02-02T05:11:55.517Z,979.4
2019-02-02T05:12:56.906Z,979.4
2019-02-02T05:13:58.293Z,979.5
2019-02-02T05:14:59.681Z,979.4
2019-02-02T05:16:01.070Z,979.5
2019-02-02T05:17:02.450Z,979.5
2019-02-02T05:18:03.835Z,979.5
2019-02-02T05:19:05.220Z,979.5
2019-02-02T05:20:06.600Z,979.5
2019-02-02T05:21:07.986Z,979.5
2019-02-02T05:22:09.372Z,979.5
2019-02-02T05:23:10.837Z,979.6
2019-02-02T05:24:12.225Z,979.5
2019-02-02T05:25:13.605Z,979.6
2019-02-02T05:26:14.993Z,979.6
2019-02-02T05:27:16.378Z,979.6
2019-02-02T05:28:17.760Z,979.7
2019-02-02T05:29:19.142Z,979.7
2019-02-02T05:30:20.544Z,979.7
2019-02-02T05:31:21.944Z,979.7
2019-02-02T05:32:23.310Z,979.7
2019-02-02T05:33:24.697Z,979.7
2019-02-02T05:34:26.087Z,979.7
2019-02-02T05:35:27.470Z,979.8
2019-02-02T05:36:28.854Z,979.7
2019-02-02T05:37:30.234Z,979.8
2019-02-02T05:38:31.615Z,979.7
2019-02-02T05:39:33.002Z,979.8
2019-02-02T05:40:34.383Z,979.7
2019-02-02T05:41:35.767Z,979.8
2019-02-02T05:42:37.164Z,979.8
2019-02-02T05:43:38.562Z,979.8
2019-02-02T05:44:39.979Z,979.9
2019-02-02T05:45:41.362Z,979.9
2019-02-02T05:46:42.746Z,979.8
2019-02-02T05:47:44.198Z,979.8
2019-02-02T05:48:45.521Z,979.8
2019-02-02T05:49:49.495Z,979.9
2019-02-02T05:50:48.250Z,979.9
2019-02-02T05:51:49.678Z,979.9
2019-02-02T05:52:51.064Z,979.9
2019-02-02T05:53:52.641Z,979.9
2019-02-02T05:54:53.925Z,979.8
2019-02-02T05:55:55.544Z,979.9
2019-02-02T05:56:56.927Z,979.9
2019-02-02T05:57:58.311Z,979.9
2019-02-02T05:58:59.706Z,979.9
2019-02-02T06:00:01.117Z,979.9
2019-02-02T06:01:02.509Z,979.9
2019-02-02T06:02:03.966Z,979.9
2019-02-02T06:03:05.351Z,979.9
2019-02-02T06:04:06.755Z,979.8
2019-02-02T06:05:08.140Z,980.0
2019-02-02T06:06:09.527Z,980.0
2019-02-02T06:07:10.909Z,980.0
2019-02-02T06:08:12.291Z,980.0
2019-02-02T06:09:13.743Z,980.1
2019-02-02T06:10:15.128Z,980.1
2019-02-02T06:11:16.514Z,980.0
2019-02-02T06:12:17.898Z,980.0
2019-02-02T06:13:19.280Z,980.1
2019-02-02T06:14:20.661Z,980.0
2019-02-02T06:15:22.061Z,980.0
2019-02-02T06:16:23.447Z,980.0
2019-02-02T06:17:24.833Z,980.0
2019-02-02T06:18:26.219Z,980.0
2019-02-02T06:19:27.646Z,980.1
2019-02-02T06:20:29.040Z,980.1
2019-02-02T06:21:30.432Z,980.1
2019-02-02T06:22:31.874Z,980.1
2019-02-02T06:23:33.263Z,980.1
2019-02-02T06:24:34.650Z,980.2
2019-02-02T06:25:36.064Z,980.2
2019-02-02T06:26:37.441Z,980.1
2019-02-02T06:27:38.835Z,980.2
2019-02-02T06:28:40.218Z,980.2
2019-02-02T06:29:41.607Z,980.2
2019-02-02T06:30:43.002Z,980.2
2019-02-02T06:31:44.393Z,980.2
2019-02-02T06:32:46.034Z,980.2
2019-02-02T06:33:47.408Z,980.1
2019-02-02T06:34:48.847Z,980.1
2019-02-02T06:35:50.234Z,980.1
2019-02-02T06:36:51.641Z,980.1
2019-02-02T06:37:53.031Z,980.2
2019-02-02T06:38:54.581Z,980.1
2019-02-02T06:39:55.964Z,980.1
2019-02-02T06:40:57.347Z,980.2
2019-02-02T06:41:58.935Z,980.2
2019-02-02T06:43:00.322Z,980.2
2019-02-02T06:44:01.715Z,980.3
2019-02-02T06:45:03.100Z,980.3
2019-02-02T06:46:04.711Z,980.3
2019-02-02T06:47:06.122Z,980.3
2019-02-02T06:48:07.507Z,980.3
2019-02-02T06:49:08.947Z,980.4
2019-02-02T06:50:10.329Z,980.3
2019-02-02T06:51:11.714Z,980.4
2019-02-02T06:52:13.103Z,980.4
2019-02-02T06:53:14.675Z,980.4
2019-02-02T06:54:16.060Z,980.4
2019-02-02T06:55:17.442Z,980.5
2019-02-02T06:56:18.832Z,980.5
2019-02-02T06:57:20.218Z,980.6
2019-02-02T06:58:21.634Z,980.6
2019-02-02T06:59:23.020Z,980.7
2019-02-02T07:00:26.357Z,980.7
2019-02-02T07:01:25.757Z,980.7
2019-02-02T07:02:27.142Z,980.7
2019-02-02T07:03:28.538Z,980.7
2019-02-02T07:04:30.127Z,980.7
2019-02-02T07:05:33.786Z,980.8
2019-02-02T07:06:32.872Z,980.8
2019-02-02T07:07:34.261Z,980.8
2019-02-02T07:08:35.651Z,980.8
2019-02-02T07:09:37.029Z,980.8
2019-02-02T07:10:38.427Z,980.9
2019-02-02T07:11:39.809Z,980.9
2019-02-02T07:12:41.196Z,980.9
2019-02-02T07:13:42.583Z,980.9
2019-02-02T07:14:43.972Z,980.9
2019-02-02T07:15:45.395Z,980.9
2019-02-02T07:16:46.775Z,980.9
2019-02-02T07:17:48.131Z,981.0
2019-02-02T07:18:49.578Z,981.0
2019-02-02T07:19:50.965Z,981.0
2019-02-02T07:20:52.349Z,981.0
2019-02-02T07:21:53.731Z,981.0
2019-02-02T07:22:55.116Z,981.1
2019-02-02T07:23:56.505Z,981.1
2019-02-02T07:24:57.933Z,981.1
2019-02-02T07:25:59.316Z,981.1
2019-02-02T07:27:00.708Z,981.1
2019-02-02T07:28:02.100Z,981.1
2019-02-02T07:29:03.483Z,981.1
2019-02-02T07:30:05.139Z,981.1
2019-02-02T07:31:06.222Z,981.2
2019-02-02T07:32:07.608Z,981.2
2019-02-02T07:33:08.987Z,981.2
2019-02-02T07:34:10.373Z,981.3
2019-02-02T07:35:11.756Z,981.3
2019-02-02T07:36:13.140Z,981.3
2019-02-02T07:37:14.528Z,981.3
2019-02-02T07:38:15.914Z,981.4
2019-02-02T07:39:17.298Z,981.4
2019-02-02T07:40:18.738Z,981.4
2019-02-02T07:41:20.123Z,981.4
2019-02-02T07:42:21.543Z,981.5
2019-02-02T07:43:22.940Z,981.4
2019-02-02T07:44:24.327Z,981.5
2019-02-02T07:45:25.711Z,981.5
2019-02-02T07:46:27.097Z,981.5
2019-02-02T07:47:28.494Z,981.5
2019-02-02T07:48:29.880Z,981.5
2019-02-02T07:49:31.267Z,981.6
2019-02-02T07:50:32.660Z,981.5
2019-02-02T07:51:34.042Z,981.6
2019-02-02T07:52:35.428Z,981.5
2019-02-02T07:53:36.861Z,981.6
2019-02-02T07:54:38.251Z,981.5
2019-02-02T07:55:39.644Z,981.6
2019-02-02T07:56:41.062Z,981.6
2019-02-02T07:57:42.433Z,981.5
2019-02-02T07:58:43.827Z,981.6
2019-02-02T07:59:45.214Z,981.6
2019-02-02T08:00:46.602Z,981.6
2019-02-02T08:01:47.991Z,981.6
2019-02-02T08:02:49.381Z,981.6
2019-02-02T08:03:50.767Z,981.7
2019-02-02T08:04:52.157Z,981.7
2019-02-02T08:05:53.558Z,981.7
2019-02-02T08:06:54.947Z,981.7
2019-02-02T08:07:56.354Z,981.7
2019-02-02T08:08:57.755Z,981.7
2019-02-02T08:09:59.128Z,981.8
2019-02-02T08:11:00.515Z,981.8
2019-02-02T08:12:01.907Z,981.7
2019-02-02T08:13:03.306Z,981.7
2019-02-02T08:14:04.689Z,981.8
2019-02-02T08:15:06.079Z,981.8
2019-02-02T08:16:07.471Z,981.8
2019-02-02T08:17:08.867Z,981.8
2019-02-02T08:18:10.265Z,981.9
2019-02-02T08:19:11.707Z,981.9
2019-02-02T08:20:13.098Z,981.9
2019-02-02T08:21:14.491Z,981.9
2019-02-02T08:22:15.881Z,981.9
2019-02-02T08:23:17.268Z,981.9
2019-02-02T08:24:18.681Z,981.9
2019-02-02T08:25:20.069Z,982.0
2019-02-02T08:26:21.457Z,982.0
2019-02-02T08:27:22.854Z,982.0
2019-02-02T08:28:24.256Z,982.0
2019-02-02T08:29:25.686Z,982.0
2019-02-02T08:30:27.140Z,982.1
2019-02-02T08:31:28.556Z,982.1
2019-02-02T08:32:29.950Z,982.1
2019-02-02T08:33:31.342Z,982.0
2019-02-02T08:34:32.796Z,982.1
2019-02-02T08:35:34.185Z,982.1
2019-02-02T08:36:35.594Z,982.1
2019-02-02T08:37:36.965Z,982.1
2019-02-02T08:38:38.354Z,982.1
2019-02-02T08:39:39.819Z,982.1
2019-02-02T08:40:41.206Z,982.1
2019-02-02T08:41:42.593Z,982.1
2019-02-02T08:42:43.988Z,982.1
2019-02-02T08:43:45.387Z,982.1
2019-02-02T08:44:46.812Z,982.1
2019-02-02T08:45:48.257Z,982.1
2019-02-02T08:46:49.649Z,982.2
2019-02-02T08:47:51.040Z,982.2
2019-02-02T08:48:52.431Z,982.2
2019-02-02T08:49:53.833Z,982.3
2019-02-02T08:50:55.234Z,982.2
2019-02-02T08:51:56.623Z,982.3
2019-02-02T08:52:58.011Z,982.3
2019-02-02T08:53:59.408Z,982.2
2019-02-02T08:55:00.851Z,982.3
2019-02-02T08:56:02.175Z,982.2
2019-02-02T08:57:03.603Z,982.2
2019-02-02T08:58:05.024Z,982.3
2019-02-02T08:59:06.319Z,982.3
2019-02-02T09:00:07.724Z,982.2
2019-02-02T09:01:09.120Z,982.3
2019-02-02T09:02:10.509Z,982.3
2019-02-02T09:03:12.016Z,982.3
2019-02-02T09:04:13.310Z,982.3
2019-02-02T09:05:14.694Z,982.3
2019-02-02T09:06:16.094Z,982.3
2019-02-02T09:07:17.497Z,982.3
2019-02-02T09:08:18.906Z,982.4
2019-02-02T09:09:20.298Z,982.4
2019-02-02T09:10:21.689Z,982.4
2019-02-02T09:11:23.086Z,982.4
2019-02-02T09:12:24.483Z,982.4
2019-02-02T09:13:25.875Z,982.3
2019-02-02T09:14:27.296Z,982.4
2019-02-02T09:15:28.685Z,982.4
2019-02-02T09:16:30.071Z,982.4
2019-02-02T09:17:31.507Z,982.4
2019-02-02T09:18:32.891Z,982.4
2019-02-02T09:19:34.281Z,982.4
2019-02-02T09:20:35.668Z,982.5
2019-02-02T09:21:37.132Z,982.4
2019-02-02T09:22:38.538Z,982.4
2019-02-02T09:23:39.928Z,982.4
2019-02-02T09:24:41.322Z,982.4
2019-02-02T09:25:42.707Z,982.5
2019-02-02T09:26:44.098Z,982.5
2019-02-02T09:27:45.517Z,982.4
2019-02-02T09:28:46.918Z,982.5
2019-02-02T09:29:48.328Z,982.5
2019-02-02T09:30:50.368Z,982.5
2019-02-02T09:31:51.922Z,982.6
2019-02-02T09:32:53.331Z,982.6
2019-02-02T09:33:54.840Z,982.6
2019-02-02T09:34:56.465Z,982.6
2019-02-02T09:35:58.899Z,982.6
2019-02-02T09:37:00.140Z,982.6
2019-02-02T09:38:01.528Z,982.7
2019-02-02T09:39:02.950Z,982.7
2019-02-02T09:40:04.358Z,982.7
2019-02-02T09:41:05.767Z,982.7
2019-02-02T09:42:07.236Z,982.7
2019-02-02T09:43:08.624Z,982.7
2019-02-02T09:44:10.045Z,982.7
2019-02-02T09:45:11.471Z,982.8
2019-02-02T09:46:12.888Z,982.8
2019-02-02T09:47:14.273Z,982.8
2019-02-02T09:48:15.675Z,982.8
2019-02-02T09:49:17.057Z,982.8
2019-02-02T09:50:18.448Z,982.8
2019-02-02T09:51:19.837Z,982.8
2019-02-02T09:52:21.251Z,982.8
2019-02-02T09:53:22.643Z,982.8
2019-02-02T09:54:26.642Z,982.9
2019-02-02T09:55:25.391Z,982.9
2019-02-02T09:56:26.841Z,982.9
2019-02-02T09:57:28.275Z,982.9
2019-02-02T09:58:29.637Z,982.9
2019-02-02T09:59:31.064Z,983.0
2019-02-02T10:00:32.449Z,983.0
2019-02-02T10:01:33.897Z,983.0
2019-02-02T10:02:35.290Z,983.0
2019-02-02T10:03:36.681Z,983.0
2019-02-02T10:04:38.071Z,983.0
2019-02-02T10:05:39.471Z,983.0
2019-02-02T10:06:40.859Z,983.1
2019-02-02T10:07:42.388Z,983.1
2019-02-02T10:08:43.807Z,983.1
2019-02-02T10:09:45.199Z,983.1
2019-02-02T10:10:46.585Z,983.1
2019-02-02T10:11:47.976Z,983.1
2019-02-02T10:12:49.501Z,983.1
2019-02-02T10:13:52.235Z,983.1
2019-02-02T10:14:52.250Z,983.1
2019-02-02T10:15:53.665Z,983.2
2019-02-02T10:16:55.057Z,983.2
2019-02-02T10:17:56.490Z,983.2
2019-02-02T10:18:57.883Z,983.2
2019-02-02T10:19:59.281Z,983.2
2019-02-02T10:21:04.156Z,983.2
2019-02-02T10:22:02.076Z,983.2
2019-02-02T10:23:03.518Z,983.3
2019-02-02T10:24:04.906Z,983.3
2019-02-02T10:25:06.297Z,983.3
2019-02-02T10:26:07.776Z,983.3
2019-02-02T10:27:09.162Z,983.4
2019-02-02T10:28:10.554Z,983.4
2019-02-02T10:29:12.021Z,983.4
2019-02-02T10:30:13.389Z,983.5
2019-02-02T10:31:14.776Z,983.5
2019-02-02T10:32:16.171Z,983.4
2019-02-02T10:33:17.565Z,983.4
2019-02-02T10:34:18.968Z,983.4
2019-02-02T10:35:20.363Z,983.4
2019-02-02T10:36:21.761Z,983.4
2019-02-02T10:37:23.154Z,983.4
2019-02-02T10:38:24.543Z,983.4
2019-02-02T10:39:25.988Z,983.4
2019-02-02T10:40:29.967Z,983.5
2019-02-02T10:41:31.382Z,983.5
2019-02-02T10:42:30.107Z,983.5
2019-02-02T10:43:31.524Z,983.5
2019-02-02T10:44:32.916Z,983.5
2019-02-02T10:45:34.424Z,983.5
2019-02-02T10:46:35.671Z,983.5
2019-02-02T10:47:37.062Z,983.5
2019-02-02T10:48:38.447Z,983.5
2019-02-02T10:49:39.833Z,983.5
2019-02-02T10:50:41.226Z,983.5
2019-02-02T10:51:42.621Z,983.5
2019-02-02T10:52:44.020Z,983.5
2019-02-02T10:53:45.410Z,983.5
2019-02-02T10:54:46.804Z,983.5
2019-02-02T10:55:48.195Z,983.5
2019-02-02T10:56:49.586Z,983.5
2019-02-02T10:57:50.977Z,983.5
2019-02-02T10:58:52.419Z,983.5
2019-02-02T10:59:53.805Z,983.5
2019-02-02T11:00:55.197Z,983.5
2019-02-02T11:01:56.588Z,983.5
2019-02-02T11:02:57.986Z,983.6
2019-02-02T11:03:59.394Z,983.5
2019-02-02T11:05:00.828Z,983.6
2019-02-02T11:06:02.201Z,983.6
2019-02-02T11:07:03.656Z,983.6
2019-02-02T11:08:05.034Z,983.6
2019-02-02T11:09:06.381Z,983.7
2019-02-02T11:10:07.842Z,983.6
2019-02-02T11:11:09.204Z,983.7
2019-02-02T11:12:10.562Z,983.7
2019-02-02T11:13:12.080Z,983.7
2019-02-02T11:14:13.327Z,983.7
2019-02-02T11:15:14.810Z,983.7
2019-02-02T11:16:16.172Z,983.7
2019-02-02T11:17:17.465Z,983.8
2019-02-02T11:18:18.943Z,983.8
2019-02-02T11:19:20.355Z,983.8
2019-02-02T11:20:21.873Z,983.8
2019-02-02T11:21:23.174Z,983.7
2019-02-02T11:22:24.727Z,983.8
2019-02-02T11:23:26.005Z,983.8
2019-02-02T11:24:27.536Z,983.9
2019-02-02T11:25:28.786Z,983.9
2019-02-02T11:26:30.150Z,983.9
2019-02-02T11:27:31.589Z,983.9
2019-02-02T11:28:33.024Z,983.9
2019-02-02T11:29:34.357Z,983.9
2019-02-02T11:30:35.770Z,983.9
2019-02-02T11:31:37.132Z,983.9
2019-02-02T11:32:38.549Z,983.9
2019-02-02T11:33:39.938Z,983.9
2019-02-02T11:34:41.335Z,983.9
2019-02-02T11:35:42.718Z,983.9
2019-02-02T11:36:44.106Z,983.9
2019-02-02T11:37:45.488Z,983.9
2019-02-02T11:38:46.975Z,984.0
2019-02-02T11:39:48.330Z,984.0
2019-02-02T11:40:49.725Z,984.0
2019-02-02T11:41:51.111Z,984.1
2019-02-02T11:42:52.506Z,984.1
2019-02-02T11:43:53.960Z,984.1
2019-02-02T11:44:55.349Z,984.1
2019-02-02T11:45:56.738Z,984.0
2019-02-02T11:46:58.141Z,984.1
2019-02-02T11:47:59.537Z,984.1
2019-02-02T11:49:01.064Z,984.1
2019-02-02T11:50:02.484Z,984.1
2019-02-02T11:51:03.892Z,984.2
2019-02-02T11:52:05.277Z,984.2
2019-02-02T11:53:06.695Z,984.3
2019-02-02T11:54:08.104Z,984.3
2019-02-02T11:55:09.528Z,984.4
2019-02-02T11:56:10.917Z,984.4
2019-02-02T11:57:12.308Z,984.4
2019-02-02T11:58:13.697Z,984.4
2019-02-02T11:59:15.088Z,984.4
2019-02-02T12:00:16.587Z,984.4
2019-02-02T12:01:17.854Z,984.4
2019-02-02T12:02:19.250Z,984.5
2019-02-02T12:03:20.645Z,984.5
2019-02-02T12:04:22.027Z,984.5
2019-02-02T12:05:23.528Z,984.5
2019-02-02T12:06:24.917Z,984.6
2019-02-02T12:07:26.303Z,984.5
2019-02-02T12:08:27.689Z,984.6
2019-02-02T12:09:29.076Z,984.6
2019-02-02T12:10:30.551Z,984.7
2019-02-02T12:11:31.957Z,984.7
2019-02-02T12:12:33.343Z,984.8
2019-02-02T12:13:34.737Z,984.8
2019-02-02T12:14:36.131Z,984.8
2019-02-02T12:15:37.517Z,984.8
2019-02-02T12:16:38.919Z,984.8
2019-02-02T12:17:40.315Z,984.9
2019-02-02T12:18:41.709Z,984.8
2019-02-02T12:19:43.101Z,984.9
2019-02-02T12:20:44.492Z,984.9
2019-02-02T12:21:46.087Z,984.9
2019-02-02T12:22:47.328Z,984.9
2019-02-02T12:23:48.722Z,984.8
2019-02-02T12:24:50.110Z,984.9
2019-02-02T12:25:53.183Z,984.9
2019-02-02T12:26:53.004Z,984.9
2019-02-02T12:27:54.382Z,984.9
2019-02-02T12:28:55.857Z,984.9
2019-02-02T12:29:57.894Z,984.9
2019-02-02T12:30:58.773Z,985.0
2019-02-02T12:32:00.164Z,985.0
2019-02-02T12:33:03.179Z,985.0
2019-02-02T12:34:02.916Z,985.0
2019-02-02T12:35:04.716Z,985.0
2019-02-02T12:36:05.651Z,985.0
2019-02-02T12:37:07.042Z,985.0
2019-02-02T12:38:08.511Z,985.0
2019-02-02T12:39:09.980Z,985.1
2019-02-02T12:40:11.412Z,985.0
2019-02-02T12:41:12.798Z,985.1
2019-02-02T12:42:14.186Z,985.2
2019-02-02T12:43:15.712Z,985.2
2019-02-02T12:44:17.102Z,985.2
2019-02-02T12:45:18.491Z,985.1
2019-02-02T12:46:19.878Z,985.1
2019-02-02T12:47:21.264Z,985.1
2019-02-02T12:48:22.728Z,985.1
2019-02-02T12:49:24.119Z,985.1
2019-02-02T12:50:25.506Z,985.1
2019-02-02T12:51:26.891Z,985.1
2019-02-02T12:52:28.279Z,985.1
2019-02-02T12:53:29.682Z,985.2
2019-02-02T12:54:31.107Z,985.2
2019-02-02T12:55:32.505Z,985.3
2019-02-02T12:56:33.893Z,985.3
2019-02-02T12:57:35.296Z,985.3
2019-02-02T12:58:36.686Z,985.3
2019-02-02T12:59:38.215Z,985.3
2019-02-02T13:00:39.427Z,985.3
2019-02-02T13:01:40.817Z,985.3
2019-02-02T13:02:42.210Z,985.3
2019-02-02T13:03:43.629Z,985.3
2019-02-02T13:04:45.154Z,985.3
2019-02-02T13:05:46.549Z,985.3
2019-02-02T13:06:47.944Z,985.2
2019-02-02T13:07:49.329Z,985.2
2019-02-02T13:08:50.711Z,985.2
2019-02-02T13:09:52.142Z,985.2
2019-02-02T13:10:53.534Z,985.3